Time;durP1;ratioP1;P1;durP2;ratioP2;P2;SDS_P1;SDS_P2;PMS_P1;PMS_P2;Temp;Humidity;BMP_temperature;BMP_pressure;BME280_temperature;BME280_humidity;BME280_pressure;Samples;Min_cycle;Max_cycle;Signal;HPM_P1;HPM_P2
2021/04/01 00:02:27;;;;;;;62.33;35.63;;;;;;;7.12;80.26;100037.94;232556;1171;115506;-67
2021/04/01 00:07:31;;;;;;;59.65;38.20;;;;;;;7.03;81.51;100034.70;234096;1174;116187;-69
2021/04/01 00:12:35;;;;;;;58.48;37.55;;;;;;;6.85;81.54;100032.63;233164;1174;115673;-70
2021/04/01 00:17:40;;;;;;;53.07;34.43;;;;;;;6.68;83.04;100018.98;232675;1174;115642;-67
2021/04/01 00:22:45;;;;;;;68.27;37.60;;;;;;;6.51;83.95;100011.61;232419;1174;116099;-68
2021/04/01 00:27:49;;;;;;;66.95;44.75;;;;;;;6.45;83.32;100004.45;232423;1174;115519;-67
2021/04/01 00:32:53;;;;;;;57.57;41.30;;;;;;;6.46;83.83;99995.50;232465;1174;119219;-66
2021/04/01 00:37:57;;;;;;;61.83;38.73;;;;;;;6.45;83.29;99992.03;232416;1174;115760;-69
2021/04/01 00:43:01;;;;;;;73.90;41.65;;;;;;;6.52;84.36;99981.45;233041;1176;115956;-68
2021/04/01 00:48:05;;;;;;;59.15;35.90;;;;;;;6.59;83.40;99982.28;232354;1174;114792;-68
2021/04/01 00:53:09;;;;;;;61.03;35.95;;;;;;;6.47;83.05;99973.30;232486;1174;115926;-68
2021/04/01 00:58:13;;;;;;;66.80;39.13;;;;;;;6.30;83.74;99965.75;232312;1174;115552;-67
2021/04/01 01:03:17;;;;;;;79.00;45.28;;;;;;;6.28;83.33;99965.14;232663;1174;115966;-68
2021/04/01 01:08:22;;;;;;;60.23;37.73;;;;;;;6.31;83.80;99953.33;232420;1174;116154;-68
2021/04/01 01:13:30;;;;;;;67.07;40.33;;;;;;;6.34;84.75;99945.80;232398;1174;115164;-70
2021/04/01 01:18:33;;;;;;;64.60;40.35;;;;;;;6.19;82.98;99939.86;232401;1175;115070;-70
2021/04/01 01:23:40;;;;;;;66.30;36.85;;;;;;;6.09;83.21;99934.16;233555;1174;115724;-71
2021/04/01 01:28:44;;;;;;;;;;;;;;;5.98;83.35;99924.97;234042;1174;114655;-69
2021/04/01 01:33:49;;;;;;;54.28;36.05;;;;;;;5.89;84.09;99928.80;233893;1167;103773;-71
2021/04/01 01:38:52;;;;;;;66.35;39.90;;;;;;;5.86;83.28;99915.94;232553;1174;115671;-69
2021/04/01 01:43:57;;;;;;;71.37;40.70;;;;;;;5.77;84.25;99909.23;234983;1174;116080;-69
2021/04/01 01:49:05;;;;;;;61.57;36.83;;;;;;;5.67;84.62;99914.88;234312;1174;115069;-68
2021/04/01 01:54:09;;;;;;;42.43;26.40;;;;;;;5.56;85.10;99899.58;233235;1175;116418;-69
2021/04/01 01:59:12;;;;;;;70.63;42.23;;;;;;;5.57;84.92;99889.81;232845;1174;114917;-69
2021/04/01 02:04:15;;;;;;;70.67;40.87;;;;;;;5.61;84.61;99881.29;233498;1174;115056;-69
2021/04/01 02:09:18;;;;;;;70.15;41.30;;;;;;;5.52;84.16;99884.30;232440;1174;116308;-69
2021/04/01 02:14:21;;;;;;;46.95;30.28;;;;;;;5.37;85.81;99879.17;233416;1174;115553;-69
2021/04/01 02:19:24;;;;;;;74.53;44.80;;;;;;;5.32;85.74;99865.73;232517;1172;114771;-69
2021/04/01 02:24:28;;;;;;;71.70;47.50;;;;;;;5.35;85.70;99871.44;232509;1174;115257;-71
2021/04/01 02:29:32;;;;;;;59.07;40.60;;;;;;;5.36;85.53;99877.55;232856;1174;115285;-68
2021/04/01 02:34:38;;;;;;;68.08;44.98;;;;;;;5.39;85.60;99874.51;232755;1174;116449;-69
2021/04/01 02:39:43;;;;;;;;;;;;;;;5.32;84.59;99871.02;232611;1174;207544;-68
2021/04/01 02:44:47;;;;;;;63.40;42.05;;;;;;;5.29;85.12;99866.13;233365;1174;103472;-68
2021/04/01 02:49:52;;;;;;;61.67;37.57;;;;;;;5.32;85.77;99863.91;232590;1174;115902;-69
2021/04/01 02:54:55;;;;;;;65.03;41.43;;;;;;;5.39;85.33;99861.30;232726;1174;116674;-70
2021/04/01 03:00:07;;;;;;;63.00;40.68;;;;;;;5.34;83.92;99855.78;232577;1167;116376;-68
2021/04/01 03:05:13;;;;;;;57.13;37.20;;;;;;;5.16;84.54;99856.33;232557;1174;115565;-68
2021/04/01 03:10:17;;;;;;;70.68;42.30;;;;;;;5.06;85.16;99854.03;233670;1174;115416;-69
2021/04/01 03:15:22;;;;;;;67.73;39.53;;;;;;;5.08;85.83;99856.48;233592;1174;115674;-68
2021/04/01 03:20:25;;;;;;;56.70;36.25;;;;;;;5.13;84.95;99853.26;232710;1170;207932;-68
2021/04/01 03:25:31;;;;;;;45.75;30.55;;;;;;;4.97;84.17;99854.39;232576;1174;116029;-67
2021/04/01 03:30:36;;;;;;;46.40;30.80;;;;;;;4.78;85.54;99836.62;235032;1174;115612;-68
2021/04/01 03:35:41;;;;;;;52.98;37.65;;;;;;;4.69;85.72;99830.66;233487;1174;115657;-67
2021/04/01 03:40:47;;;;;;;57.08;39.83;;;;;;;4.61;85.31;99823.70;233552;1174;118495;-69
2021/04/01 03:45:52;;;;;;;64.75;40.35;;;;;;;4.60;84.95;99823.91;234946;1174;115426;-70
2021/04/01 03:50:55;;;;;;;42.23;29.95;;;;;;;4.56;87.35;99825.33;234346;1174;115313;-70
2021/04/01 03:55:59;;;;;;;50.10;35.03;;;;;;;4.54;87.77;99814.14;234176;1174;115302;-69
2021/04/01 04:12:45;;;;;;;60.20;40.60;;;;;;;4.55;86.53;99789.38;232592;1174;115836;-70
2021/04/01 04:17:19;;;;;;;42.83;30.23;;;;;;;4.51;88.16;99794.22;232923;1174;115351;-71
2021/04/01 04:22:23;;;;;;;61.63;41.15;;;;;;;4.60;86.47;99786.94;232378;1170;115516;-71
2021/04/01 04:32:51;;;;;;;67.78;42.55;;;;;;;4.62;86.53;99774.36;232708;1174;115623;-70
2021/04/01 04:37:55;;;;;;;75.28;49.28;;;;;;;4.59;86.39;99775.56;232605;1174;116327;-68
2021/04/01 04:43:00;;;;;;;85.93;51.00;;;;;;;4.70;85.89;99772.38;232752;1174;116031;-68
2021/04/01 04:48:04;;;;;;;77.13;49.85;;;;;;;4.80;85.78;99769.39;232801;1174;116155;-69
2021/04/01 04:53:08;;;;;;;75.45;45.68;;;;;;;4.95;85.00;99777.97;232568;1174;116034;-68
2021/04/01 04:58:40;;;;;;;59.10;40.65;;;;;;;5.17;84.14;99777.87;232702;1174;115539;-68
2021/04/01 05:08:59;;;;;;;40.80;31.20;;;;;;;5.33;83.67;99769.56;233136;1174;114850;-66
2021/04/01 05:14:03;;;;;;;50.30;32.93;;;;;;;5.33;83.88;99762.45;233375;1174;114869;-65
2021/04/01 05:19:11;;;;;;;60.58;41.83;;;;;;;5.49;84.42;99755.98;233543;1174;115961;-65
2021/04/01 05:24:17;;;;;;;72.60;43.03;;;;;;;5.90;85.00;99755.01;233112;1174;115629;-66
2021/04/01 05:29:34;;;;;;;68.15;45.20;;;;;;;6.33;83.86;99753.55;233743;1174;115599;-67
2021/04/01 05:34:38;;;;;;;68.45;38.45;;;;;;;6.53;83.19;99742.09;234037;1174;115397;-65
2021/04/01 05:39:42;;;;;;;73.80;45.25;;;;;;;6.81;83.18;99742.60;234701;1174;115041;-65
2021/04/01 05:44:48;;;;;;;66.30;44.30;;;;;;;7.17;82.10;99733.27;234947;1175;115212;-68
2021/04/01 05:50:05;;;;;;;64.23;42.23;;;;;;;7.57;81.58;99731.19;235040;1174;115181;-68
2021/04/01 06:05:40;;;;;;;67.00;41.95;;;;;;;8.87;80.21;99730.11;233080;1174;142952;-67
2021/04/01 06:10:47;;;;;;;55.23;37.37;;;;;;;9.12;79.73;99730.02;232318;1169;117395;-70
2021/04/01 06:15:52;;;;;;;59.85;39.83;;;;;;;9.37;78.65;99721.89;233139;1174;116151;-69
2021/04/01 06:20:58;;;;;;;63.47;41.20;;;;;;;9.74;80.31;99718.04;232646;1171;116030;-68
2021/04/01 06:26:03;;;;;;;51.67;36.70;;;;;;;10.11;79.20;99713.29;232536;1174;116722;-68
2021/04/01 06:31:08;;;;;;;55.60;34.38;;;;;;;10.60;79.78;99708.53;232526;1167;116092;-70
2021/04/01 06:36:18;;;;;;;55.58;33.03;;;;;;;11.06;77.83;99718.23;232851;1174;116488;-70
2021/04/01 06:41:28;;;;;;;50.45;27.90;;;;;;;11.41;75.42;99712.73;232638;1175;116084;-69
2021/04/01 06:46:44;;;;;;;42.40;24.70;;;;;;;11.69;72.25;99713.72;232959;1174;116906;-69
2021/04/01 06:51:55;;;;;;;25.03;15.90;;;;;;;11.97;68.63;99707.51;232611;1174;116141;-69
2021/04/01 06:57:59;;;;;;;44.40;27.73;;;;;;;12.66;68.24;99699.91;232611;1171;116062;-66
2021/04/01 07:03:04;;;;;;;40.78;25.60;;;;;;;13.26;65.76;99704.34;233345;1174;116208;-68
2021/04/01 07:08:10;;;;;;;47.90;25.80;;;;;;;13.53;64.01;99704.32;232409;1174;116321;-65
2021/04/01 07:13:20;;;;;;;38.18;22.30;;;;;;;13.88;62.12;99701.13;233303;1174;115871;-68
2021/04/01 07:30:51;;;;;;;43.70;25.30;;;;;;;14.40;58.44;99699.30;232782;1174;116444;-66
2021/04/01 07:35:45;;;;;;;41.65;24.88;;;;;;;15.13;58.01;99692.09;232696;1174;116987;-69
2021/04/01 07:44:46;;;;;;;42.20;24.23;;;;;;;15.43;55.24;99691.33;233376;1174;116184;-68
2021/04/01 07:51:58;;;;;;;37.93;24.33;;;;;;;15.65;56.15;99688.40;235135;1174;135496;-67
2021/04/01 08:08:09;;;;;;;43.18;26.88;;;;;;;16.07;55.13;99676.55;232673;1174;115417;-67
2021/04/01 08:13:15;;;;;;;33.27;23.07;;;;;;;16.31;53.40;99677.55;232528;1174;115710;-69
2021/04/01 08:18:25;;;;;;;30.88;17.58;;;;;;;16.59;55.53;99664.53;234270;1174;117671;-69
2021/04/01 08:29:16;;;;;;;26.77;19.00;;;;;;;16.95;53.25;99665.20;232369;1174;115974;-67
2021/04/01 08:34:41;;;;;;;35.50;21.40;;;;;;;17.09;53.93;99664.31;232309;1174;116005;-68
2021/04/01 08:40:05;;;;;;;28.40;20.85;;;;;;;17.39;55.91;99641.74;232879;1174;116113;-67
2021/04/01 08:45:58;;;;;;;32.27;20.43;;;;;;;17.51;54.29;99628.69;232620;1174;116171;-68
2021/04/01 08:51:34;;;;;;;23.05;16.25;;;;;;;17.67;54.44;99620.51;232457;1174;115871;-67
2021/04/01 08:56:59;;;;;;;26.18;17.60;;;;;;;18.05;53.22;99622.25;232696;1171;115779;-68
2021/04/01 09:02:03;;;;;;;26.60;17.07;;;;;;;18.44;50.32;99615.87;232687;1174;115281;-69
2021/04/01 09:07:17;;;;;;;23.38;15.88;;;;;;;18.76;48.25;99601.70;232425;1174;115376;-69
2021/04/01 09:12:46;;;;;;;22.73;14.70;;;;;;;18.96;49.36;99597.89;233345;1174;116718;-71
2021/04/01 09:17:59;;;;;;;30.55;14.93;;;;;;;19.10;47.54;99598.77;232448;1174;115311;-70
2021/04/01 09:23:08;;;;;;;21.68;13.50;;;;;;;19.54;46.23;99601.06;232512;1174;116350;-66
2021/04/01 09:28:13;;;;;;;25.83;13.83;;;;;;;19.93;44.81;99595.19;233364;1174;115748;-67
2021/04/01 09:33:25;;;;;;;25.80;15.35;;;;;;;20.15;42.59;99583.69;232848;1174;116086;-70
2021/04/01 09:38:39;;;;;;;25.63;15.05;;;;;;;20.43;43.50;99588.00;232619;1174;116279;-69
2021/04/01 09:43:50;;;;;;;20.43;13.70;;;;;;;20.67;41.53;99579.63;233996;1174;116141;-69
2021/04/01 09:49:06;;;;;;;19.63;9.65;;;;;;;20.69;41.08;99577.41;233716;1174;117596;-71
2021/04/01 09:54:16;;;;;;;23.38;14.80;;;;;;;20.99;40.20;99578.61;234512;1174;115616;-71
2021/04/01 09:59:31;;;;;;;19.18;12.00;;;;;;;21.11;38.90;99576.13;235134;1174;117260;-71
2021/04/01 10:04:40;;;;;;;16.93;10.38;;;;;;;21.17;36.46;99576.81;234619;1174;118056;-69
2021/04/01 10:09:50;;;;;;;18.47;12.27;;;;;;;21.05;34.99;99571.17;232578;1174;115969;-70
2021/04/01 10:14:54;;;;;;;20.50;11.60;;;;;;;21.03;33.61;99557.13;234266;1176;115062;-68
2021/04/01 10:19:59;;;;;;;18.55;12.65;;;;;;;21.12;36.60;99557.96;233700;1176;116338;-71
2021/04/01 10:30:20;;;;;;;;;;;;;;;21.27;32.05;99552.21;233672;1174;115105;-71
2021/04/01 10:35:28;;;;;;;15.75;10.38;;;;;;;21.21;34.92;99544.50;234492;1174;103271;-72
2021/04/01 10:40:34;;;;;;;22.85;11.45;;;;;;;21.42;33.79;99542.87;232599;1174;116081;-71
2021/04/01 10:45:43;;;;;;;15.98;11.70;;;;;;;21.47;32.37;99523.76;233068;1174;116348;-71
2021/04/01 10:50:53;;;;;;;19.35;12.65;;;;;;;21.57;32.65;99523.50;233030;1174;117246;-70
2021/04/01 10:56:08;;;;;;;22.30;12.90;;;;;;;21.50;34.20;99523.14;232653;1174;116186;-70
2021/04/01 11:01:12;;;;;;;22.18;12.88;;;;;;;21.49;31.27;99507.98;232365;1174;115973;-70
2021/04/01 11:06:20;;;;;;;23.90;13.25;;;;;;;21.48;32.18;99514.52;232454;1174;116190;-70
2021/04/01 11:16:59;;;;;;;24.38;13.23;;;;;;;21.24;32.92;99503.23;232473;1174;116130;-69
2021/04/01 11:22:04;;;;;;;24.68;13.70;;;;;;;21.09;32.72;99494.36;232899;1174;116533;-71
2021/04/01 11:27:08;;;;;;;20.80;14.75;;;;;;;21.25;34.43;99494.78;233633;1176;117211;-71
2021/04/01 11:32:20;;;;;;;22.35;12.50;;;;;;;21.25;31.68;99493.98;232860;1174;116661;-71
2021/04/01 11:37:25;;;;;;;22.37;13.77;;;;;;;21.24;32.82;99489.67;234364;1174;116348;-70
2021/04/01 11:42:28;;;;;;;14.65;11.90;;;;;;;21.59;31.95;99477.88;233461;1174;115608;-71
2021/04/01 11:47:32;;;;;;;16.50;11.57;;;;;;;21.73;30.84;99470.41;232819;1174;116246;-70
2021/04/01 11:52:35;;;;;;;18.80;11.55;;;;;;;21.61;28.92;99481.08;232745;1174;116309;-70
2021/04/01 11:57:45;;;;;;;18.43;11.93;;;;;;;21.30;31.59;99480.30;235006;1174;115455;-70
2021/04/01 12:08:02;;;;;;;18.98;11.78;;;;;;;21.46;33.26;99468.72;234732;1174;115906;-71
2021/04/01 12:13:05;;;;;;;19.50;12.93;;;;;;;21.34;30.98;99470.44;232562;1174;116253;-70
2021/04/01 12:18:09;;;;;;;23.30;14.33;;;;;;;21.28;31.87;99471.68;233315;1174;177321;-69
2021/04/01 12:23:20;;;;;;;13.50;9.10;;;;;;;21.14;33.22;99460.88;232488;1167;116013;-68
2021/04/01 12:28:25;;;;;;;33.60;17.85;;;;;;;21.13;32.61;99468.21;232606;1174;116342;-69
2021/04/01 12:33:29;;;;;;;33.45;17.08;;;;;;;21.12;33.22;99458.48;232895;1174;116188;-69
2021/04/01 12:38:36;;;;;;;21.75;16.40;;;;;;;21.08;34.03;99443.98;232671;1174;117670;-67
2021/04/01 12:43:45;;;;;;;28.90;19.30;;;;;;;20.96;33.91;99442.94;232661;1174;116223;-69
2021/04/01 12:48:54;;;;;;;28.65;18.30;;;;;;;20.94;34.30;99437.83;232832;1174;117100;-69
2021/04/01 12:54:04;;;;;;;19.90;14.10;;;;;;;21.00;34.45;99427.66;232648;1174;116583;-67
2021/04/01 12:59:13;;;;;;;28.98;17.15;;;;;;;20.94;35.45;99426.99;233048;1174;116331;-68
2021/04/01 13:04:20;;;;;;;21.88;15.28;;;;;;;20.97;33.97;99420.95;232877;1173;116032;-65
2021/04/01 13:09:28;;;;;;;24.83;18.30;;;;;;;20.83;34.13;99428.35;232479;1174;116576;-70
2021/04/01 13:14:32;;;;;;;19.30;13.38;;;;;;;20.60;33.47;99422.16;232632;1174;117381;-69
2021/04/01 13:19:36;;;;;;;28.67;15.97;;;;;;;20.42;33.83;99423.16;232607;1174;117152;-68
2021/04/01 13:29:59;;;;;;;25.83;15.73;;;;;;;19.81;38.42;99460.46;232440;1174;116871;-69
2021/04/01 13:35:19;;;;;;;28.05;15.78;;;;;;;19.74;36.10;99461.96;232776;1174;116827;-72
2021/04/01 13:40:24;;;;;;;23.70;13.30;;;;;;;19.27;37.54;99461.20;233700;1174;116073;-67
2021/04/01 13:45:27;;;;;;;21.67;13.00;;;;;;;19.03;36.31;99469.47;234105;1174;115179;-68
2021/04/01 13:50:35;;;;;;;18.20;13.33;;;;;;;18.89;36.41;99462.44;234943;1174;115298;-68
2021/04/01 13:56:06;;;;;;;20.80;13.30;;;;;;;18.47;36.20;99459.55;234415;1174;115996;-67
2021/04/01 14:11:58;;;;;;;15.80;9.68;;;;;;;18.16;35.76;99478.08;232997;1174;116354;-69
2021/04/01 14:17:02;;;;;;;12.47;7.67;;;;;;;18.11;35.51;99493.53;234820;1167;115282;-67
2021/04/01 14:22:08;;;;;;;13.83;7.25;;;;;;;17.96;35.50;99489.14;233963;1174;117367;-67
2021/04/01 14:27:31;;;;;;;15.78;9.90;;;;;;;17.97;35.15;99489.95;232857;1174;115619;-69
2021/04/01 14:32:39;;;;;;;23.53;12.68;;;;;;;17.76;36.04;99490.17;232442;1174;115685;-69
2021/04/01 14:37:43;;;;;;;16.60;11.43;;;;;;;17.54;37.62;99497.16;232545;1174;115430;-68
2021/04/01 14:42:50;;;;;;;21.00;13.40;;;;;;;17.46;39.34;99506.66;232410;1174;115797;-66
2021/04/01 14:47:54;;;;;;;21.53;13.45;;;;;;;17.13;40.00;99506.43;233787;1174;115900;-69
2021/04/01 14:53:00;;;;;;;19.60;12.10;;;;;;;16.87;39.30;99504.23;233029;1174;115565;-69
2021/04/01 14:58:04;;;;;;;17.45;10.68;;;;;;;16.51;39.13;99507.16;232563;1174;117723;-68
2021/04/01 15:03:10;;;;;;;21.03;11.93;;;;;;;16.48;38.69;99503.16;232545;1174;115623;-68
2021/04/01 15:08:14;;;;;;;24.97;12.33;;;;;;;16.22;38.82;99504.37;232513;1174;115253;-70
2021/04/01 15:13:19;;;;;;;14.73;7.90;;;;;;;16.15;38.54;99509.27;232554;1174;115960;-68
2021/04/01 15:18:26;;;;;;;27.73;13.03;;;;;;;16.14;39.76;99508.47;233165;1174;116747;-68
2021/04/01 15:23:30;;;;;;;22.85;10.30;;;;;;;15.98;39.17;99520.34;233390;1174;116256;-68
2021/04/01 15:28:36;;;;;;;15.20;10.35;;;;;;;15.92;40.65;99521.44;232528;1174;116483;-69
2021/04/01 15:33:40;;;;;;;15.73;8.90;;;;;;;15.80;40.74;99516.40;232241;1171;116514;-69
2021/04/01 15:38:45;;;;;;;12.90;7.75;;;;;;;15.73;42.32;99523.13;233789;1174;116373;-68
2021/04/01 15:43:48;;;;;;;18.85;11.38;;;;;;;15.66;41.72;99514.55;232829;1174;114976;-68
2021/04/01 15:48:51;;;;;;;17.03;10.10;;;;;;;15.56;41.53;99526.15;234105;1174;115774;-69
2021/04/01 15:53:54;;;;;;;17.08;9.65;;;;;;;15.48;41.82;99518.61;232724;1174;115309;-69
2021/04/01 15:58:57;;;;;;;14.53;8.63;;;;;;;15.47;42.75;99519.68;232535;1174;115592;-69
2021/04/01 16:04:00;;;;;;;25.73;10.00;;;;;;;15.44;43.24;99518.34;232420;1174;115944;-68
2021/04/01 16:09:03;;;;;;;23.50;9.97;;;;;;;15.47;43.17;99525.05;233350;1167;116079;-66
2021/04/01 16:14:06;;;;;;;13.63;7.40;;;;;;;15.33;45.19;99523.98;232850;1174;116308;-68
2021/04/01 16:19:13;;;;;;;11.03;6.07;;;;;;;15.33;46.10;99524.80;232405;1174;117836;-68
2021/04/01 16:24:16;;;;;;;7.23;4.35;;;;;;;15.13;47.57;99532.88;232649;1174;116669;-66
2021/04/01 16:29:19;;;;;;;14.90;5.30;;;;;;;14.89;49.61;99532.62;233306;1174;115451;-67
2021/04/01 16:34:22;;;;;;;7.90;4.17;;;;;;;14.74;50.44;99530.71;233205;1174;115843;-68
2021/04/01 16:39:28;;;;;;;12.23;4.65;;;;;;;14.46;51.21;99532.01;232411;1174;116195;-69
2021/04/01 16:44:30;;;;;;;7.50;3.73;;;;;;;14.30;51.62;99540.27;232580;1174;116490;-70
2021/04/01 16:49:33;;;;;;;5.63;2.30;;;;;;;13.98;53.97;99538.54;232446;1172;115904;-67
2021/04/01 16:54:46;;;;;;;10.80;3.80;;;;;;;13.84;54.88;99545.42;232412;1174;115498;-68
2021/04/01 16:59:51;;;;;;;13.10;2.53;;;;;;;13.75;54.87;99555.85;232429;1174;117488;-68
2021/04/01 17:04:54;;;;;;;7.78;3.25;;;;;;;13.65;56.01;99553.11;233144;1174;115190;-67
2021/04/01 17:09:57;;;;;;;7.13;2.20;;;;;;;13.54;57.15;99546.06;232754;1174;115597;-68
2021/04/01 17:15:00;;;;;;;5.93;2.33;;;;;;;13.29;57.94;99554.73;232408;1174;115725;-67
2021/04/01 17:20:06;;;;;;;4.75;2.85;;;;;;;13.11;59.29;99550.56;232340;1174;116373;-70
2021/04/01 17:25:10;;;;;;;8.50;4.00;;;;;;;12.99;59.83;99552.59;232682;1174;114613;-69
2021/04/01 17:30:14;;;;;;;5.87;4.10;;;;;;;12.82;59.88;99565.30;232451;1174;115341;-68
2021/04/01 17:35:19;;;;;;;6.75;3.55;;;;;;;12.79;60.28;99555.10;233542;1174;115530;-66
2021/04/01 17:40:23;;;;;;;12.70;4.57;;;;;;;12.73;60.83;99558.78;232957;1167;115029;-67
2021/04/01 17:45:26;;;;;;;7.10;4.80;;;;;;;12.68;60.22;99556.05;233262;1174;115502;-67
2021/04/01 17:50:29;;;;;;;12.60;5.35;;;;;;;12.64;60.36;99568.31;232802;1174;115456;-67
2021/04/01 18:01:04;;;;;;;13.65;5.00;;;;;;;12.48;61.27;99586.88;235150;1174;117349;-66
2021/04/01 18:32:22;;;;;;;10.78;6.08;;;;;;;11.95;63.04;99600.90;232540;1174;117061;-70
2021/04/01 18:37:29;;;;;;;8.70;5.85;;;;;;;11.86;62.01;99609.60;232245;1174;116510;-69
2021/04/01 18:42:37;;;;;;;13.95;7.25;;;;;;;11.69;61.33;99621.08;232270;1174;116254;-66
2021/04/01 18:48:27;;;;;;;11.40;6.50;;;;;;;11.61;61.92;99618.03;232462;1174;116659;-69
2021/04/01 18:53:14;;;;;;;13.50;7.45;;;;;;;11.51;61.60;99621.34;232675;1174;117173;-68
2021/04/01 18:58:20;;;;;;;12.47;7.60;;;;;;;11.44;61.13;99623.36;232526;1174;117423;-66
2021/04/01 19:03:25;;;;;;;12.43;6.93;;;;;;;11.41;61.28;99626.52;233438;1174;116033;-67
2021/04/01 19:09:08;;;;;;;9.87;7.57;;;;;;;11.34;62.52;99632.00;232483;1174;116403;-67
2021/04/01 19:24:30;;;;;;;13.83;8.00;;;;;;;11.14;63.36;99627.14;233088;1174;115723;-67
2021/04/01 19:29:34;;;;;;;16.55;9.40;;;;;;;11.12;63.60;99631.09;233146;1173;115241;-65
2021/04/01 19:34:41;;;;;;;11.70;7.77;;;;;;;11.03;64.59;99635.20;233718;1174;116335;-67
2021/04/01 19:39:46;;;;;;;14.90;9.15;;;;;;;11.03;64.91;99625.34;232609;1174;115880;-68
2021/04/01 19:44:51;;;;;;;16.33;9.87;;;;;;;10.96;66.41;99635.38;234269;1174;116238;-66
2021/04/01 19:49:55;;;;;;;24.05;12.65;;;;;;;10.92;67.09;99631.56;233458;1170;115666;-68
2021/04/01 19:54:58;;;;;;;25.47;11.73;;;;;;;10.83;68.34;99624.98;232757;1174;116241;-66
2021/04/01 20:00:06;;;;;;;17.53;10.88;;;;;;;10.72;68.96;99629.31;232184;1174;116911;-67
2021/04/01 20:05:12;;;;;;;24.58;10.63;;;;;;;10.64;69.30;99631.56;232771;1174;115553;-65
2021/04/01 20:10:18;;;;;;;22.63;13.05;;;;;;;10.55;70.09;99633.80;234442;1174;115708;-68
2021/04/01 20:15:21;;;;;;;22.30;12.20;;;;;;;10.46;70.07;99630.68;235018;1174;116022;-66
2021/04/01 20:20:25;;;;;;;26.70;16.17;;;;;;;10.28;71.34;99648.69;234703;1174;119027;-66
2021/04/01 20:25:29;;;;;;;44.08;20.00;;;;;;;10.19;71.92;99642.91;232500;1174;115737;-67
2021/04/01 20:30:33;;;;;;;29.57;16.87;;;;;;;10.15;73.15;99660.37;232973;1174;116260;-66
2021/04/01 20:35:41;;;;;;;21.77;13.75;;;;;;;9.98;73.99;99662.95;233737;1174;116404;-66
2021/04/01 20:40:47;;;;;;;19.90;10.45;;;;;;;9.68;75.58;99675.55;232562;1174;118187;-67
2021/04/01 20:45:52;;;;;;;20.70;12.40;;;;;;;9.54;75.62;99672.28;233329;1174;117156;-65
2021/04/01 20:50:56;;;;;;;28.25;14.40;;;;;;;9.43;76.57;99671.25;232465;1174;115966;-70
2021/04/01 20:56:01;;;;;;;13.45;9.95;;;;;;;9.31;76.73;99674.91;233078;1174;203513;-69
2021/04/01 21:01:06;;;;;;;22.38;12.18;;;;;;;9.13;77.91;99682.97;232408;1174;117597;-68
2021/04/01 21:06:11;;;;;;;13.50;8.80;;;;;;;8.86;77.87;99675.36;233043;1174;116590;-65
2021/04/01 21:11:14;;;;;;;15.68;11.23;;;;;;;8.73;79.00;99681.64;232617;1175;116349;-67
2021/04/01 21:16:17;;;;;;;17.97;12.20;;;;;;;8.62;78.60;99673.60;232607;1174;194770;-66
2021/04/01 21:21:20;;;;;;;20.70;12.07;;;;;;;8.57;78.43;99673.45;232890;1174;116661;-66
2021/04/01 21:26:23;;;;;;;10.57;7.33;;;;;;;8.40;79.09;99676.72;232950;1174;117136;-66
2021/04/01 21:31:27;;;;;;;17.83;12.00;;;;;;;8.34;80.34;99666.16;232630;1174;116606;-67
2021/04/01 21:36:30;;;;;;;12.95;11.30;;;;;;;8.28;80.95;99661.70;233028;1174;117062;-67
2021/04/01 21:41:33;;;;;;;12.08;9.33;;;;;;;8.21;80.61;99667.11;232587;1174;116172;-66
2021/04/01 21:46:37;;;;;;;21.10;13.20;;;;;;;8.15;80.48;99670.64;232581;1174;116786;-67
2021/04/01 21:51:41;;;;;;;22.93;15.38;;;;;;;8.10;80.91;99665.18;233350;1171;117423;-65
2021/04/01 21:56:45;;;;;;;29.30;16.85;;;;;;;8.10;80.84;99675.80;233814;1174;116400;-66
2021/04/01 22:01:48;;;;;;;24.60;14.23;;;;;;;8.10;81.03;99699.69;232545;1173;116705;-67
2021/04/01 22:06:52;;;;;;;30.55;20.05;;;;;;;8.12;80.85;99702.94;232637;1174;116820;-68
2021/04/01 22:11:56;;;;;;;28.75;19.20;;;;;;;8.08;80.71;99710.53;233407;1174;115836;-67
2021/04/01 22:17:01;;;;;;;27.33;15.93;;;;;;;8.09;80.85;99706.03;232551;1174;116306;-64
2021/04/01 22:22:05;;;;;;;27.15;18.58;;;;;;;8.06;80.60;99715.24;234330;1173;117608;-71
2021/04/01 22:27:09;;;;;;;21.83;13.93;;;;;;;7.95;80.43;99720.47;234936;1174;115226;-68
2021/04/01 22:32:13;;;;;;;13.00;8.37;;;;;;;7.70;81.05;99733.72;234879;1174;115648;-66
2021/04/01 22:37:17;;;;;;;7.67;4.97;;;;;;;7.35;82.76;99754.56;234006;1174;115185;-68
2021/04/01 22:42:23;;;;;;;9.33;6.95;;;;;;;7.09;83.93;99761.64;232614;1174;115591;-68
2021/04/01 22:47:27;;;;;;;7.65;5.28;;;;;;;6.99;83.91;99763.13;232548;1174;115167;-68
2021/04/01 22:52:30;;;;;;;10.63;6.03;;;;;;;6.81;84.27;99770.94;233117;1174;115477;-67
2021/04/01 22:57:35;;;;;;;8.20;6.05;;;;;;;6.54;84.34;99770.20;232622;1174;115865;-67
2021/04/01 23:02:39;;;;;;;4.27;3.53;;;;;;;6.31;85.09;99775.95;232942;1174;115687;-67
2021/04/01 23:07:43;;;;;;;6.75;3.03;;;;;;;6.26;85.96;99786.34;233445;1174;117605;-68
2021/04/01 23:12:50;;;;;;;7.83;5.73;;;;;;;6.15;86.28;99792.25;233721;1174;115753;-68
2021/04/01 23:17:57;;;;;;;4.60;3.15;;;;;;;5.98;85.92;99807.73;233112;1174;116647;-68
2021/04/01 23:23:01;;;;;;;3.55;2.70;;;;;;;5.76;85.03;99828.23;232962;1174;117472;-68
2021/04/01 23:28:06;;;;;;;3.13;2.93;;;;;;;5.60;84.75;99847.92;232502;1174;115852;-66
2021/04/01 23:33:13;;;;;;;2.90;2.58;;;;;;;5.43;85.77;99851.14;232416;1174;116948;-66
2021/04/01 23:38:15;;;;;;;3.13;2.93;;;;;;;5.32;86.51;99852.52;232721;1174;116323;-67
2021/04/01 23:43:18;;;;;;;3.05;2.75;;;;;;;5.22;86.03;99854.70;232477;1174;116482;-65
2021/04/01 23:48:22;;;;;;;1.73;1.63;;;;;;;4.97;84.34;99847.28;233350;1174;116660;-65
2021/04/01 23:53:24;;;;;;;1.00;1.00;;;;;;;4.69;83.05;99854.44;233254;1174;116675;-65
2021/04/01 23:58:28;;;;;;;1.73;1.63;;;;;;;4.47;82.52;99850.23;233444;1174;115896;-69
